createdAt,value
2019-05-30T00:00:08.868Z,6.80
2019-05-30T00:00:53.946Z,6.76
2019-05-30T00:01:54.174Z,6.80
2019-05-30T00:02:53.935Z,6.80
2019-05-30T00:03:53.947Z,6.80
2019-05-30T00:04:54.050Z,6.80
2019-05-30T00:05:54.153Z,6.83
2019-05-30T00:06:54.174Z,6.77
2019-05-30T00:07:54.052Z,6.80
2019-05-30T00:08:52.730Z,6.77
2019-05-30T00:09:52.709Z,6.79
2019-05-30T00:10:52.700Z,6.71
2019-05-30T00:11:52.696Z,6.63
2019-05-30T00:12:52.676Z,6.58
2019-05-30T00:13:52.665Z,6.56
2019-05-30T00:14:52.659Z,6.59
2019-05-30T00:15:52.645Z,6.54
2019-05-30T00:16:52.643Z,6.48
2019-05-30T00:17:52.623Z,6.48
2019-05-30T00:18:52.614Z,6.46
2019-05-30T00:19:52.602Z,6.40
2019-05-30T00:20:52.590Z,6.40
2019-05-30T00:21:52.588Z,6.48
2019-05-30T00:22:52.593Z,6.40
2019-05-30T00:23:52.560Z,6.38
2019-05-30T00:24:52.547Z,6.38
2019-05-30T00:25:52.540Z,6.30
2019-05-30T00:26:52.538Z,6.33
2019-05-30T00:27:52.517Z,6.32
2019-05-30T00:28:52.503Z,6.36
2019-05-30T00:29:52.491Z,6.36
2019-05-30T00:30:52.480Z,6.40
2019-05-30T00:31:52.480Z,6.33
2019-05-30T00:32:52.459Z,6.35
2019-05-30T00:33:52.448Z,6.28
2019-05-30T00:34:52.437Z,6.30
2019-05-30T00:35:52.427Z,6.25
2019-05-30T00:36:52.425Z,6.30
2019-05-30T00:37:52.404Z,6.32
2019-05-30T00:38:52.403Z,6.29
2019-05-30T00:39:52.385Z,6.33
2019-05-30T00:40:52.379Z,6.30
2019-05-30T00:41:52.370Z,6.28
2019-05-30T00:42:52.352Z,6.26
2019-05-30T00:43:52.342Z,6.30
2019-05-30T00:44:52.331Z,6.18
2019-05-30T00:45:52.322Z,6.18
2019-05-30T00:46:52.368Z,6.10
2019-05-30T00:47:52.297Z,6.13
2019-05-30T00:48:52.286Z,6.11
2019-05-30T00:49:52.277Z,6.16
2019-05-30T00:50:52.273Z,6.10
2019-05-30T00:51:52.255Z,6.14
2019-05-30T00:52:52.251Z,6.14
2019-05-30T00:53:52.231Z,6.07
2019-05-30T00:54:52.221Z,6.25
2019-05-30T00:55:52.213Z,6.14
2019-05-30T00:56:52.200Z,6.10
2019-05-30T00:57:52.199Z,6.13
2019-05-30T00:58:52.178Z,6.11
2019-05-30T00:59:52.165Z,6.13
2019-05-30T01:00:52.155Z,6.10
2019-05-30T01:01:52.144Z,6.04
2019-05-30T01:02:52.167Z,6.01
2019-05-30T01:03:52.123Z,5.98
2019-05-30T01:04:52.118Z,6.00
2019-05-30T01:05:52.105Z,5.93
2019-05-30T01:06:52.134Z,6.00
2019-05-30T01:07:52.098Z,5.92
2019-05-30T01:08:52.073Z,5.92
2019-05-30T01:09:52.058Z,5.89
2019-05-30T01:10:52.050Z,5.86
2019-05-30T01:11:52.036Z,5.86
2019-05-30T01:12:52.036Z,5.86
2019-05-30T01:13:52.017Z,5.86
2019-05-30T01:14:52.011Z,5.89
2019-05-30T01:15:51.998Z,6.00
2019-05-30T01:16:51.984Z,5.93
2019-05-30T01:17:51.983Z,5.89
2019-05-30T01:18:51.963Z,5.82
2019-05-30T01:19:51.960Z,5.86
2019-05-30T01:20:51.940Z,5.88
2019-05-30T01:21:51.932Z,5.85
2019-05-30T01:22:51.931Z,5.77
2019-05-30T01:23:51.909Z,5.74
2019-05-30T01:24:51.909Z,5.81
2019-05-30T01:25:51.887Z,5.77
2019-05-30T01:26:51.876Z,5.73
2019-05-30T01:27:51.877Z,5.77
2019-05-30T01:28:51.857Z,5.75
2019-05-30T01:29:51.855Z,5.70
2019-05-30T01:31:00.304Z,5.75
2019-05-30T01:31:52.822Z,5.68
2019-05-30T01:32:51.827Z,5.66
2019-05-30T01:33:51.808Z,5.67
2019-05-30T01:34:51.790Z,5.68
2019-05-30T01:35:51.782Z,5.71
2019-05-30T01:36:51.769Z,5.73
2019-05-30T01:37:51.771Z,5.67
2019-05-30T01:38:51.748Z,5.60
2019-05-30T01:39:51.739Z,5.63
2019-05-30T01:40:51.730Z,5.55
2019-05-30T01:41:51.717Z,5.52
2019-05-30T01:42:51.715Z,5.48
2019-05-30T01:43:51.697Z,5.50
2019-05-30T01:44:51.685Z,5.45
2019-05-30T01:45:51.674Z,5.52
2019-05-30T01:46:51.662Z,5.55
2019-05-30T01:47:51.662Z,5.49
2019-05-30T01:48:51.641Z,5.49
2019-05-30T01:49:51.634Z,5.55
2019-05-30T01:50:51.621Z,5.41
2019-05-30T01:51:51.610Z,5.55
2019-05-30T01:52:51.657Z,5.41
2019-05-30T01:53:51.589Z,5.53
2019-05-30T01:54:51.581Z,5.57
2019-05-30T01:55:51.566Z,5.48
2019-05-30T01:56:51.554Z,5.56
2019-05-30T01:57:51.544Z,5.60
2019-05-30T01:58:51.542Z,5.50
2019-05-30T01:59:51.529Z,5.49
2019-05-30T02:00:51.511Z,5.49
2019-05-30T02:01:51.502Z,5.55
2019-05-30T02:02:51.497Z,5.57
2019-05-30T02:03:51.488Z,5.59
2019-05-30T02:04:51.472Z,5.56
2019-05-30T02:05:51.460Z,5.55
2019-05-30T02:06:51.446Z,5.52
2019-05-30T02:07:51.437Z,5.49
2019-05-30T02:08:51.433Z,5.49
2019-05-30T02:09:51.415Z,5.48
2019-05-30T02:10:51.403Z,5.46
2019-05-30T02:11:51.395Z,5.45
2019-05-30T02:12:51.391Z,5.40
2019-05-30T02:13:51.379Z,5.34
2019-05-30T02:14:51.361Z,5.30
2019-05-30T02:15:51.368Z,5.30
2019-05-30T02:16:51.339Z,5.25
2019-05-30T02:17:51.329Z,5.28
2019-05-30T02:18:51.335Z,5.22
2019-05-30T02:19:51.307Z,5.34
2019-05-30T02:20:51.295Z,5.28
2019-05-30T02:21:51.284Z,5.27
2019-05-30T02:22:51.281Z,5.23
2019-05-30T02:23:51.270Z,5.25
2019-05-30T02:24:51.253Z,5.27
2019-05-30T02:25:51.244Z,5.34
2019-05-30T02:26:51.235Z,5.31
2019-05-30T02:27:51.229Z,5.23
2019-05-30T02:28:51.216Z,5.19
2019-05-30T02:29:51.198Z,5.31
2019-05-30T02:30:51.190Z,5.17
2019-05-30T02:31:51.180Z,5.19
2019-05-30T02:32:51.168Z,5.31
2019-05-30T02:33:51.164Z,5.20
2019-05-30T02:34:51.146Z,5.10
2019-05-30T02:35:51.134Z,5.02
2019-05-30T02:36:51.124Z,4.98
2019-05-30T02:37:51.117Z,4.92
2019-05-30T02:38:51.110Z,4.92
2019-05-30T02:39:51.089Z,4.94
2019-05-30T02:40:51.082Z,4.96
2019-05-30T02:41:51.072Z,4.98
2019-05-30T02:42:51.060Z,4.94
2019-05-30T02:43:51.064Z,5.07
2019-05-30T02:44:51.038Z,5.04
2019-05-30T02:45:51.034Z,5.05
2019-05-30T02:46:51.017Z,5.13
2019-05-30T02:47:51.010Z,5.19
2019-05-30T02:48:58.924Z,5.14
2019-05-30T02:49:51.982Z,5.12
2019-05-30T02:50:50.973Z,5.10
2019-05-30T02:51:50.965Z,5.22
2019-05-30T02:52:50.970Z,5.20
2019-05-30T02:53:50.948Z,5.20
2019-05-30T02:54:50.930Z,5.27
2019-05-30T02:55:50.919Z,5.20
2019-05-30T02:56:50.908Z,5.25
2019-05-30T02:57:50.898Z,5.23
2019-05-30T02:58:50.895Z,5.25
2019-05-30T02:59:50.882Z,5.28
2019-05-30T03:00:50.864Z,5.31
2019-05-30T03:02:00.846Z,5.25
2019-05-30T03:02:51.849Z,5.25
2019-05-30T03:03:50.874Z,5.30
2019-05-30T03:04:50.822Z,5.34
2019-05-30T03:05:50.834Z,5.37
2019-05-30T03:06:50.802Z,5.38
2019-05-30T03:07:50.795Z,5.41
2019-05-30T03:08:50.778Z,5.41
2019-05-30T03:09:50.781Z,5.45
2019-05-30T03:10:50.765Z,5.49
2019-05-30T03:11:50.744Z,5.49
2019-05-30T03:12:50.737Z,5.43
2019-05-30T03:13:50.725Z,5.55
2019-05-30T03:14:50.723Z,5.46
2019-05-30T03:15:50.705Z,5.49
2019-05-30T03:16:50.695Z,5.57
2019-05-30T03:17:50.682Z,5.57
2019-05-30T03:18:50.759Z,5.57
2019-05-30T03:19:50.669Z,5.63
2019-05-30T03:20:50.685Z,5.59
2019-05-30T03:21:50.636Z,5.60
2019-05-30T03:22:50.638Z,5.66
2019-05-30T03:23:50.623Z,5.60
2019-05-30T03:24:50.615Z,5.71
2019-05-30T03:25:50.595Z,5.73
2019-05-30T03:26:50.583Z,5.91
2019-05-30T03:27:50.575Z,6.01
2019-05-30T03:28:53.382Z,6.07
2019-05-30T03:29:50.564Z,6.07
2019-05-30T03:30:50.547Z,6.10
2019-05-30T03:31:50.643Z,6.11
2019-05-30T03:33:19.128Z,6.16
2019-05-30T03:33:51.539Z,6.25
2019-05-30T03:34:50.625Z,6.11
2019-05-30T03:35:50.491Z,6.16
2019-05-30T03:36:50.477Z,6.13
2019-05-30T03:37:50.475Z,6.19
2019-05-30T03:38:50.459Z,6.29
2019-05-30T03:39:50.453Z,6.29
2019-05-30T03:40:50.442Z,6.30
2019-05-30T03:41:50.427Z,6.35
2019-05-30T03:42:50.413Z,6.43
2019-05-30T03:43:50.427Z,6.61
2019-05-30T03:44:50.400Z,6.81
2019-05-30T03:45:50.383Z,7.17
2019-05-30T03:46:50.391Z,7.31
2019-05-30T03:47:50.358Z,7.34
2019-05-30T03:48:50.347Z,7.41
2019-05-30T03:49:50.347Z,7.75
2019-05-30T03:50:50.325Z,8.03
2019-05-30T03:51:50.316Z,8.17
2019-05-30T03:52:50.302Z,8.08
2019-05-30T03:53:50.295Z,7.99
2019-05-30T03:54:50.295Z,7.92
2019-05-30T03:55:50.275Z,8.00
2019-05-30T03:56:50.260Z,8.08
2019-05-30T03:57:50.249Z,8.21
2019-05-30T03:58:50.241Z,8.47
2019-05-30T03:59:50.250Z,8.88
2019-05-30T04:00:51.369Z,9.49
2019-05-30T04:01:50.207Z,10.00
2019-05-30T04:02:57.653Z,10.62
2019-05-30T04:03:51.185Z,11.16
2019-05-30T04:04:50.187Z,11.62
2019-05-30T04:05:50.163Z,12.19
2019-05-30T04:06:50.153Z,12.52
2019-05-30T04:07:50.148Z,12.70
2019-05-30T04:08:50.135Z,13.07
2019-05-30T04:09:50.153Z,13.43
2019-05-30T04:10:50.119Z,13.81
2019-05-30T04:11:50.096Z,14.12
2019-05-30T04:12:50.085Z,14.27
2019-05-30T04:13:50.081Z,14.60
2019-05-30T04:14:50.063Z,14.93
2019-05-30T04:15:50.062Z,15.31
2019-05-30T04:16:50.059Z,15.75
2019-05-30T04:17:50.031Z,16.18
2019-05-30T04:18:50.022Z,16.50
2019-05-30T04:19:50.012Z,16.83
2019-05-30T04:20:50.020Z,17.07
2019-05-30T04:21:49.993Z,17.23
2019-05-30T04:22:49.978Z,17.35
2019-05-30T04:23:49.970Z,17.57
2019-05-30T04:24:49.956Z,18.02
2019-05-30T04:25:49.956Z,18.27
2019-05-30T04:26:49.939Z,18.57
2019-05-30T04:27:49.923Z,18.34
2019-05-30T04:28:49.913Z,18.07
2019-05-30T04:29:49.901Z,18.42
2019-05-30T04:30:49.905Z,18.49
2019-05-30T04:31:49.884Z,18.39
2019-05-30T04:32:49.870Z,18.02
2019-05-30T04:33:49.860Z,18.24
2019-05-30T04:34:49.859Z,18.44
2019-05-30T04:35:49.846Z,18.82
2019-05-30T04:36:53.245Z,19.15
2019-05-30T04:37:49.823Z,19.36
2019-05-30T04:38:49.806Z,19.47
2019-05-30T04:39:49.797Z,19.72
2019-05-30T04:40:49.791Z,19.72
2019-05-30T04:41:49.781Z,19.61
2019-05-30T04:42:49.764Z,19.84
2019-05-30T04:43:49.759Z,20.18
2019-05-30T04:44:49.757Z,20.61
2019-05-30T04:45:49.754Z,20.87
2019-05-30T04:46:49.724Z,21.01
2019-05-30T04:47:49.712Z,21.34
2019-05-30T04:48:49.707Z,21.48
2019-05-30T04:49:49.695Z,21.60
2019-05-30T04:50:49.689Z,21.67
2019-05-30T04:51:49.670Z,21.61
2019-05-30T04:52:49.662Z,21.72
2019-05-30T04:53:49.661Z,21.59
2019-05-30T04:54:49.644Z,21.56
2019-05-30T04:55:49.655Z,21.57
2019-05-30T04:56:49.629Z,21.74
2019-05-30T04:57:49.612Z,22.02
2019-05-30T04:58:49.598Z,22.20
2019-05-30T04:59:49.590Z,22.38
2019-05-30T05:00:49.577Z,22.60
2019-05-30T05:01:49.613Z,22.72
2019-05-30T05:02:49.559Z,22.89
2019-05-30T05:03:49.548Z,23.17
2019-05-30T05:04:49.538Z,23.34
2019-05-30T05:05:49.531Z,23.32
2019-05-30T05:06:49.525Z,23.32
2019-05-30T05:07:49.511Z,23.39
2019-05-30T05:08:49.500Z,23.47
2019-05-30T05:09:49.497Z,22.99
2019-05-30T05:10:49.478Z,22.96
2019-05-30T05:11:49.485Z,22.99
2019-05-30T05:12:49.459Z,22.99
2019-05-30T05:13:49.460Z,23.01
2019-05-30T05:14:49.437Z,22.83
2019-05-30T05:15:49.429Z,22.96
2019-05-30T05:16:49.426Z,23.20
2019-05-30T05:17:49.410Z,22.80
2019-05-30T05:18:49.412Z,21.79
2019-05-30T05:19:49.396Z,21.83
2019-05-30T05:20:49.384Z,22.27
2019-05-30T05:21:49.377Z,22.54
2019-05-30T05:22:49.358Z,22.82
2019-05-30T05:23:49.349Z,23.38
2019-05-30T05:24:49.343Z,22.50
2019-05-30T05:26:00.312Z,22.41
2019-05-30T05:26:50.329Z,22.84
2019-05-30T05:27:49.312Z,23.11
2019-05-30T05:28:49.300Z,23.17
2019-05-30T05:29:49.290Z,22.29
2019-05-30T05:30:49.282Z,22.41
2019-05-30T05:31:49.281Z,22.62
2019-05-30T05:32:49.262Z,23.08
2019-05-30T05:33:56.798Z,23.50
2019-05-30T05:34:52.116Z,24.10
2019-05-30T05:35:49.235Z,24.39
2019-05-30T05:36:49.231Z,24.83
2019-05-30T05:37:49.221Z,25.19
2019-05-30T05:38:49.205Z,25.38
2019-05-30T05:39:49.207Z,25.37
2019-05-30T05:40:49.187Z,24.94
2019-05-30T05:41:49.187Z,24.60
2019-05-30T05:42:49.172Z,24.42
2019-05-30T05:43:49.161Z,24.79
2019-05-30T05:44:49.152Z,24.76
2019-05-30T05:45:49.141Z,24.69
2019-05-30T05:46:49.140Z,24.92
2019-05-30T05:47:49.122Z,24.98
2019-05-30T05:48:49.115Z,25.00
2019-05-30T05:49:49.104Z,25.02
2019-05-30T05:50:49.094Z,24.53
2019-05-30T05:51:49.117Z,23.95
2019-05-30T05:52:49.079Z,23.49
2019-05-30T05:53:49.070Z,23.50
2019-05-30T05:54:49.056Z,23.29
2019-05-30T05:55:49.046Z,23.29
2019-05-30T05:56:49.049Z,23.39
2019-05-30T05:57:49.026Z,23.58
2019-05-30T05:58:49.017Z,23.60
2019-05-30T05:59:49.007Z,23.64
2019-05-30T06:00:49.005Z,23.77
2019-05-30T06:01:48.995Z,23.89
2019-05-30T06:02:48.977Z,24.19
2019-05-30T06:03:48.967Z,24.59
2019-05-30T06:04:48.958Z,24.92
2019-05-30T06:05:53.076Z,25.13
2019-05-30T06:06:48.974Z,25.31
2019-05-30T06:07:48.930Z,25.72
2019-05-30T06:08:48.921Z,25.90
2019-05-30T06:09:48.914Z,25.82
2019-05-30T06:10:48.907Z,25.75
2019-05-30T06:11:49.196Z,25.47
2019-05-30T06:12:48.892Z,24.95
2019-05-30T06:13:48.873Z,25.10
2019-05-30T06:14:48.864Z,25.22
2019-05-30T06:15:48.854Z,25.34
2019-05-30T06:16:48.845Z,25.67
2019-05-30T06:17:48.843Z,25.80
2019-05-30T06:18:48.828Z,26.20
2019-05-30T06:19:48.817Z,26.02
2019-05-30T06:20:48.806Z,25.83
2019-05-30T06:21:54.112Z,26.28
2019-05-30T06:22:49.796Z,26.54
2019-05-30T06:23:48.788Z,26.42
2019-05-30T06:24:48.772Z,26.25
2019-05-30T06:25:48.761Z,26.39
2019-05-30T06:26:48.759Z,26.29
2019-05-30T06:27:48.751Z,26.17
2019-05-30T06:28:48.738Z,25.80
2019-05-30T06:29:48.723Z,25.72
2019-05-30T06:30:48.713Z,25.83
2019-05-30T06:31:48.706Z,25.77
2019-05-30T06:32:48.707Z,25.72
2019-05-30T06:33:48.686Z,25.89
2019-05-30T06:34:48.677Z,26.12
2019-05-30T06:35:48.665Z,26.18
2019-05-30T06:36:48.658Z,26.05
2019-05-30T06:37:48.653Z,26.39
2019-05-30T06:38:48.636Z,26.52
2019-05-30T06:39:48.629Z,26.64
2019-05-30T06:40:48.620Z,26.50
2019-05-30T06:41:48.607Z,26.52
2019-05-30T06:42:48.604Z,26.49
2019-05-30T06:43:48.586Z,26.20
2019-05-30T06:44:48.578Z,26.15
2019-05-30T06:45:48.567Z,26.08
2019-05-30T06:46:48.560Z,26.02
2019-05-30T06:47:48.563Z,25.87
2019-05-30T06:48:48.536Z,25.84
2019-05-30T06:49:48.525Z,25.56
2019-05-30T06:50:48.516Z,25.61
2019-05-30T06:51:48.510Z,25.43
2019-05-30T06:52:48.508Z,25.54
2019-05-30T06:53:48.485Z,25.57
2019-05-30T06:54:48.477Z,25.59
2019-05-30T06:55:48.466Z,25.42
2019-05-30T06:56:48.455Z,25.30
2019-05-30T06:57:48.455Z,25.16
2019-05-30T06:58:49.202Z,25.20
2019-05-30T06:59:48.424Z,25.10
2019-05-30T07:00:48.413Z,25.09
2019-05-30T07:01:51.806Z,25.00
2019-05-30T07:02:48.403Z,24.85
2019-05-30T07:03:48.480Z,24.59
2019-05-30T07:04:52.126Z,24.39
2019-05-30T07:05:48.958Z,24.39
2019-05-30T07:06:48.621Z,24.19
2019-05-30T07:07:48.516Z,24.13
2019-05-30T07:08:48.331Z,24.16
2019-05-30T07:09:48.321Z,24.13
2019-05-30T07:10:48.312Z,24.08
2019-05-30T07:11:48.306Z,24.17
2019-05-30T07:12:48.301Z,24.13
2019-05-30T07:13:48.281Z,23.97
2019-05-30T07:14:48.269Z,23.72
2019-05-30T07:15:48.258Z,23.60
2019-05-30T07:16:48.250Z,23.34
2019-05-30T07:17:48.251Z,23.04
2019-05-30T07:18:48.229Z,22.84
2019-05-30T07:19:48.216Z,22.90
2019-05-30T07:20:48.206Z,22.87
2019-05-30T07:21:48.195Z,22.74
2019-05-30T07:22:48.195Z,22.49
2019-05-30T07:23:48.175Z,22.49
2019-05-30T07:24:48.163Z,22.52
2019-05-30T07:25:48.151Z,22.67
2019-05-30T07:26:48.142Z,22.49
2019-05-30T07:27:48.132Z,22.37
2019-05-30T07:28:48.129Z,22.32
2019-05-30T07:29:48.107Z,22.32
2019-05-30T07:30:48.098Z,22.50
2019-05-30T07:31:48.091Z,22.65
2019-05-30T07:32:48.081Z,22.80
2019-05-30T07:33:48.076Z,22.87
2019-05-30T07:34:48.058Z,22.96
2019-05-30T07:35:48.048Z,23.02
2019-05-30T07:36:48.035Z,23.07
2019-05-30T07:37:48.030Z,22.99
2019-05-30T07:38:48.022Z,22.97
2019-05-30T07:39:48.012Z,22.99
2019-05-30T07:40:47.993Z,22.74
2019-05-30T07:42:04.905Z,22.56
2019-05-30T07:42:48.970Z,22.59
2019-05-30T07:43:47.970Z,22.17
2019-05-30T07:44:47.950Z,22.20
2019-05-30T07:45:57.659Z,22.25
2019-05-30T07:46:48.928Z,22.49
2019-05-30T07:47:47.922Z,22.38
2019-05-30T07:48:47.915Z,22.46
2019-05-30T07:49:47.897Z,22.52
2019-05-30T07:50:47.889Z,22.72
2019-05-30T07:51:47.878Z,22.74
2019-05-30T07:52:47.866Z,22.89
2019-05-30T07:53:47.863Z,22.80
2019-05-30T07:54:47.843Z,22.86
2019-05-30T07:55:47.833Z,23.01
2019-05-30T07:56:47.824Z,22.89
2019-05-30T07:57:47.811Z,22.83
2019-05-30T07:58:47.813Z,22.69
2019-05-30T07:59:47.800Z,22.54
2019-05-30T08:00:47.782Z,22.54
2019-05-30T08:01:47.769Z,22.52
2019-05-30T08:02:47.760Z,22.54
2019-05-30T08:03:47.756Z,22.44
2019-05-30T08:04:47.739Z,22.49
2019-05-30T08:05:47.725Z,22.53
2019-05-30T08:06:47.715Z,22.57
2019-05-30T08:07:47.705Z,22.65
2019-05-30T08:08:47.702Z,22.82
2019-05-30T08:09:47.684Z,22.86
2019-05-30T08:10:47.672Z,22.64
2019-05-30T08:11:47.663Z,22.56
2019-05-30T08:12:47.651Z,22.75
2019-05-30T08:13:47.653Z,22.74
2019-05-30T08:14:47.631Z,22.78
2019-05-30T08:15:47.619Z,22.71
2019-05-30T08:16:47.608Z,22.82
2019-05-30T08:17:47.603Z,22.87
2019-05-30T08:18:47.596Z,22.82
2019-05-30T08:19:47.575Z,22.96
2019-05-30T08:20:47.565Z,23.07
2019-05-30T08:21:47.555Z,22.97
2019-05-30T08:22:47.547Z,22.97
2019-05-30T08:23:47.542Z,22.75
2019-05-30T08:24:47.524Z,22.72
2019-05-30T08:25:47.513Z,22.87
2019-05-30T08:26:47.502Z,22.84
2019-05-30T08:27:47.491Z,22.87
2019-05-30T08:28:47.501Z,22.86
2019-05-30T08:29:47.470Z,22.93
2019-05-30T08:30:47.459Z,22.86
2019-05-30T08:31:47.446Z,22.84
2019-05-30T08:32:47.438Z,22.92
2019-05-30T08:33:47.628Z,22.87
2019-05-30T08:34:47.416Z,23.02
2019-05-30T08:35:49.579Z,23.02
2019-05-30T08:36:47.393Z,23.14
2019-05-30T08:37:47.391Z,23.14
2019-05-30T08:38:48.263Z,23.22
2019-05-30T08:39:47.362Z,23.32
2019-05-30T08:40:47.352Z,23.14
2019-05-30T08:41:47.344Z,23.02
2019-05-30T08:42:47.332Z,23.15
2019-05-30T08:43:47.319Z,23.20
2019-05-30T08:44:47.316Z,23.29
2019-05-30T08:45:47.301Z,23.32
2019-05-30T08:46:47.288Z,23.49
2019-05-30T08:47:47.275Z,23.40
2019-05-30T08:48:47.264Z,23.27
2019-05-30T08:49:47.264Z,23.38
2019-05-30T08:50:47.243Z,23.32
2019-05-30T08:51:47.234Z,23.29
2019-05-30T08:52:47.223Z,23.11
2019-05-30T08:53:47.211Z,23.11
2019-05-30T08:54:47.211Z,23.12
2019-05-30T08:55:47.190Z,23.26
2019-05-30T08:56:47.178Z,23.27
2019-05-30T08:57:47.176Z,23.31
2019-05-30T08:58:47.156Z,23.42
2019-05-30T08:59:47.159Z,23.62
2019-05-30T09:00:47.138Z,23.60
2019-05-30T09:01:51.714Z,23.62
2019-05-30T09:02:48.115Z,23.82
2019-05-30T09:03:47.103Z,23.85
2019-05-30T09:04:47.100Z,23.71
2019-05-30T09:05:59.300Z,23.68
2019-05-30T09:06:48.070Z,23.70
2019-05-30T09:07:47.065Z,23.83
2019-05-30T09:08:47.049Z,23.89
2019-05-30T09:09:47.047Z,23.65
2019-05-30T09:10:47.030Z,23.65
2019-05-30T09:11:47.017Z,23.85
2019-05-30T09:12:49.489Z,23.89
2019-05-30T09:13:46.996Z,24.16
2019-05-30T09:14:47.007Z,24.27
2019-05-30T09:15:47.124Z,24.10
2019-05-30T09:16:48.269Z,24.05
2019-05-30T09:17:46.960Z,23.90
2019-05-30T09:18:47.482Z,23.97
2019-05-30T09:19:47.492Z,24.10
2019-05-30T09:20:47.447Z,23.94
2019-05-30T09:21:47.514Z,24.08
2019-05-30T09:22:47.430Z,24.14
2019-05-30T09:23:47.964Z,24.04
2019-05-30T09:24:47.937Z,24.16
2019-05-30T09:25:49.302Z,24.07
2019-05-30T09:26:50.194Z,23.98
2019-05-30T09:27:48.245Z,23.87
2019-05-30T09:28:46.835Z,23.86
2019-05-30T09:29:46.834Z,23.82
2019-05-30T09:30:46.819Z,23.92
2019-05-30T09:31:46.803Z,24.00
2019-05-30T09:32:47.055Z,24.04
2019-05-30T09:33:46.791Z,23.86
2019-05-30T09:34:47.015Z,24.07
2019-05-30T09:35:47.084Z,24.20
2019-05-30T09:36:46.961Z,24.04
2019-05-30T09:37:47.762Z,23.97
2019-05-30T09:38:47.450Z,23.98
2019-05-30T09:39:47.417Z,24.01
2019-05-30T09:40:47.651Z,24.10
2019-05-30T09:41:47.743Z,24.22
2019-05-30T09:42:48.521Z,24.27
2019-05-30T09:43:46.675Z,24.37
2019-05-30T09:44:50.208Z,24.39
2019-05-30T09:45:46.657Z,24.41
2019-05-30T09:46:47.005Z,24.44
2019-05-30T09:47:47.133Z,24.29
2019-05-30T09:48:46.817Z,24.34
2019-05-30T09:49:46.626Z,24.38
2019-05-30T09:50:46.819Z,24.31
2019-05-30T09:51:47.021Z,24.19
2019-05-30T09:52:47.132Z,24.05
2019-05-30T09:53:46.569Z,24.10
2019-05-30T09:54:46.569Z,23.95
2019-05-30T09:55:46.561Z,24.04
2019-05-30T09:56:46.646Z,24.01
2019-05-30T09:57:47.575Z,24.13
2019-05-30T09:58:47.665Z,24.20
2019-05-30T09:59:48.158Z,24.38
2019-05-30T10:00:48.203Z,24.49
2019-05-30T10:01:46.483Z,24.38
2019-05-30T10:02:46.836Z,24.53
2019-05-30T10:03:46.597Z,24.56
2019-05-30T10:04:46.900Z,24.45
2019-05-30T10:05:47.057Z,24.19
2019-05-30T10:06:46.431Z,24.14
2019-05-30T10:07:47.499Z,24.01
2019-05-30T10:08:47.724Z,24.08
2019-05-30T10:09:47.157Z,24.17
2019-05-30T10:10:47.702Z,24.16
2019-05-30T10:11:47.243Z,24.32
2019-05-30T10:12:46.929Z,24.37
2019-05-30T10:13:47.518Z,24.26
2019-05-30T10:14:46.898Z,24.42
2019-05-30T10:15:46.962Z,24.49
2019-05-30T10:16:50.338Z,24.52
2019-05-30T10:17:48.125Z,24.52
2019-05-30T10:18:47.437Z,24.56
2019-05-30T10:19:47.149Z,24.56
2019-05-30T10:20:47.835Z,24.45
2019-05-30T10:21:47.183Z,24.13
2019-05-30T10:22:47.112Z,23.92
2019-05-30T10:23:47.519Z,23.72
2019-05-30T10:24:47.576Z,23.89
2019-05-30T10:25:47.846Z,23.95
2019-05-30T10:26:47.230Z,24.01
2019-05-30T10:27:48.032Z,24.12
2019-05-30T10:28:47.712Z,24.16
2019-05-30T10:29:47.595Z,24.04
2019-05-30T10:30:50.921Z,24.07
2019-05-30T10:31:48.272Z,24.07
2019-05-30T10:32:47.336Z,24.17
2019-05-30T10:33:47.559Z,24.20
2019-05-30T10:34:46.634Z,23.98
2019-05-30T10:35:47.435Z,23.86
2019-05-30T10:36:47.723Z,23.86
2019-05-30T10:37:47.178Z,23.94
2019-05-30T10:38:47.388Z,23.87
2019-05-30T10:39:47.312Z,23.92
2019-05-30T10:40:47.371Z,23.90
2019-05-30T10:41:47.463Z,23.95
2019-05-30T10:42:47.551Z,24.16
2019-05-30T10:43:47.362Z,24.31
2019-05-30T10:44:47.512Z,24.52
2019-05-30T10:45:46.572Z,24.67
2019-05-30T10:46:47.218Z,24.68
2019-05-30T10:47:47.484Z,24.77
2019-05-30T10:48:47.297Z,24.59
2019-05-30T10:49:46.835Z,24.42
2019-05-30T10:50:47.018Z,24.31
2019-05-30T10:51:46.637Z,24.32
2019-05-30T10:52:47.142Z,24.35
2019-05-30T10:53:47.385Z,24.35
2019-05-30T10:54:46.704Z,24.12
2019-05-30T10:55:46.929Z,24.07
2019-05-30T10:56:47.036Z,24.04
2019-05-30T10:57:47.019Z,24.35
2019-05-30T10:58:47.988Z,24.34
2019-05-30T10:59:47.186Z,24.35
2019-05-30T11:00:47.234Z,24.32
2019-05-30T11:01:47.092Z,24.31
2019-05-30T11:02:47.376Z,24.29
2019-05-30T11:03:47.125Z,24.34
2019-05-30T11:04:46.142Z,24.50
2019-05-30T11:05:46.215Z,24.45
2019-05-30T11:07:01.279Z,24.44
2019-05-30T11:08:00.162Z,24.53
2019-05-30T11:08:47.924Z,24.57
2019-05-30T11:09:46.605Z,24.52
2019-05-30T11:10:46.430Z,24.67
2019-05-30T11:11:46.637Z,24.67
2019-05-30T11:12:46.618Z,24.73
2019-05-30T11:13:46.786Z,24.76
2019-05-30T11:14:46.825Z,24.71
2019-05-30T11:15:47.078Z,24.67
2019-05-30T11:16:45.706Z,24.54
2019-05-30T11:17:45.685Z,24.68
2019-05-30T11:18:45.674Z,24.75
2019-05-30T11:19:45.665Z,24.80
2019-05-30T11:20:45.654Z,24.94
2019-05-30T11:21:45.653Z,24.82
2019-05-30T11:22:45.638Z,24.68
2019-05-30T11:23:45.622Z,24.52
2019-05-30T11:24:45.611Z,24.52
2019-05-30T11:25:45.663Z,24.63
2019-05-30T11:26:45.600Z,24.71
2019-05-30T11:27:45.583Z,24.77
2019-05-30T11:28:45.568Z,24.75
2019-05-30T11:29:45.557Z,24.79
2019-05-30T11:30:45.553Z,24.64
2019-05-30T11:31:45.545Z,24.50
2019-05-30T11:32:45.528Z,24.69
2019-05-30T11:33:45.520Z,24.56
2019-05-30T11:34:45.505Z,24.39
2019-05-30T11:35:45.494Z,24.14
2019-05-30T11:36:45.492Z,24.16
2019-05-30T11:37:45.472Z,24.20
2019-05-30T11:38:45.521Z,24.38
2019-05-30T11:39:45.452Z,24.41
2019-05-30T11:40:45.440Z,24.39
2019-05-30T11:41:45.438Z,24.42
2019-05-30T11:42:45.419Z,24.38
2019-05-30T11:43:45.415Z,24.59
2019-05-30T11:44:45.410Z,24.50
2019-05-30T11:45:45.388Z,24.41
2019-05-30T11:46:45.390Z,24.27
2019-05-30T11:47:45.368Z,24.32
2019-05-30T11:48:45.356Z,24.29
2019-05-30T11:49:45.346Z,24.42
2019-05-30T11:50:45.390Z,24.49
2019-05-30T11:51:45.336Z,24.56
2019-05-30T11:52:45.315Z,24.57
2019-05-30T11:53:45.354Z,24.61
2019-05-30T11:54:45.295Z,24.75
2019-05-30T11:55:45.290Z,24.75
2019-05-30T11:56:45.285Z,24.87
2019-05-30T11:57:45.262Z,24.91
2019-05-30T11:58:45.252Z,24.95
2019-05-30T11:59:45.242Z,24.92
2019-05-30T12:00:45.230Z,24.95
2019-05-30T12:01:45.257Z,24.92
2019-05-30T12:02:45.239Z,24.79
2019-05-30T12:03:45.210Z,24.88
2019-05-30T12:04:45.188Z,24.98
2019-05-30T12:05:45.177Z,24.97
2019-05-30T12:06:45.169Z,24.90
2019-05-30T12:07:45.165Z,25.00
2019-05-30T12:08:45.146Z,24.95
2019-05-30T12:09:45.139Z,25.00
2019-05-30T12:10:45.125Z,24.94
2019-05-30T12:11:45.114Z,25.00
2019-05-30T12:12:45.112Z,25.07
2019-05-30T12:13:45.096Z,25.19
2019-05-30T12:14:45.085Z,25.20
2019-05-30T12:15:45.071Z,25.19
2019-05-30T12:16:45.062Z,24.95
2019-05-30T12:17:45.059Z,24.90
2019-05-30T12:18:45.040Z,24.94
2019-05-30T12:19:45.030Z,24.97
2019-05-30T12:20:45.023Z,24.95
2019-05-30T12:21:45.010Z,24.91
2019-05-30T12:22:45.006Z,24.98
2019-05-30T12:23:44.986Z,24.97
2019-05-30T12:24:44.977Z,25.06
2019-05-30T12:25:44.970Z,25.07
2019-05-30T12:26:44.955Z,25.05
2019-05-30T12:27:44.956Z,24.98
2019-05-30T12:28:44.934Z,24.91
2019-05-30T12:29:44.924Z,25.01
2019-05-30T12:30:55.881Z,25.10
2019-05-30T12:31:45.904Z,25.20
2019-05-30T12:32:44.904Z,25.09
2019-05-30T12:33:44.882Z,25.22
2019-05-30T12:34:44.873Z,25.30
2019-05-30T12:35:44.876Z,25.31
2019-05-30T12:36:44.851Z,25.31
2019-05-30T12:37:55.064Z,25.42
2019-05-30T12:38:45.829Z,25.44
2019-05-30T12:39:44.820Z,25.34
2019-05-30T12:40:44.809Z,25.19
2019-05-30T12:41:44.798Z,25.02
2019-05-30T12:42:44.797Z,24.90
2019-05-30T12:43:44.779Z,24.85
2019-05-30T12:44:44.772Z,24.94
2019-05-30T12:45:44.756Z,24.88
2019-05-30T12:46:44.746Z,24.92
2019-05-30T12:47:44.745Z,24.94
2019-05-30T12:48:44.727Z,24.90
2019-05-30T12:49:44.713Z,24.85
2019-05-30T12:50:44.705Z,24.79
2019-05-30T12:51:44.700Z,24.85
2019-05-30T12:52:44.691Z,24.95
2019-05-30T12:53:44.676Z,24.91
2019-05-30T12:54:44.663Z,24.92
2019-05-30T12:55:44.650Z,24.97
2019-05-30T12:56:44.642Z,25.00
2019-05-30T12:57:44.662Z,25.09
2019-05-30T12:58:44.620Z,25.22
2019-05-30T12:59:44.611Z,25.27